Time;durP1;ratioP1;P1;durP2;ratioP2;P2;SDS_P1;SDS_P2;PMS_P1;PMS_P2;Temp;Humidity;BMP_temperature;BMP_pressure;BME280_temperature;BME280_humidity;BME280_pressure;Samples;Min_cycle;Max_cycle;Signal;HPM_P1;HPM_P2
2022/12/10 00:00:53;;;;;;;;;62.25;51.00;;;;;2.36;77.72;99919.59;5057201;28;45610;-77
2022/12/10 00:03:19;;;;;;;;;67.25;55.25;;;;;2.26;77.77;99899.00;5057378;28;45372;-76
2022/12/10 00:05:44;;;;;;;;;64.75;53.50;;;;;2.34;78.37;99925.69;5056069;28;45284;-74
2022/12/10 00:08:09;;;;;;;;;59.25;49.75;;;;;2.32;78.22;99921.41;5055833;28;45363;-75
2022/12/10 00:10:39;;;;;;;;;56.50;48.00;;;;;2.20;78.38;99912.09;5056412;28;45540;-74
2022/12/10 00:13:05;;;;;;;;;63.25;52.25;;;;;2.22;77.61;99917.25;5056279;28;45491;-73
2022/12/10 00:15:30;;;;;;;;;70.00;56.00;;;;;2.25;78.09;99932.78;5058022;28;45415;-75
2022/12/10 00:17:55;;;;;;;;;65.25;53.00;;;;;2.29;78.32;99929.25;5057634;28;45518;-75
2022/12/10 00:20:21;;;;;;;;;61.00;51.50;;;;;2.29;77.89;99927.50;5055128;28;53405;-75
2022/12/10 00:22:46;;;;;;;;;68.00;54.75;;;;;2.18;78.37;99912.13;5055675;28;45414;-75
2022/12/10 00:25:12;;;;;;;;;67.25;53.00;;;;;2.31;78.31;99923.13;5056908;28;45339;-74
2022/12/10 00:27:37;;;;;;;;;64.00;51.25;;;;;2.32;78.06;99924.00;5058589;28;45623;-72
2022/12/10 00:30:03;;;;;;;;;63.50;53.75;;;;;2.32;78.46;99930.03;5058800;28;45394;-73
2022/12/10 00:32:28;;;;;;;;;66.00;55.25;;;;;2.34;77.83;99936.06;5059048;28;45397;-74
2022/12/10 00:34:53;;;;;;;;;67.50;52.00;;;;;2.34;78.72;99932.63;5061679;28;45446;-75
2022/12/10 00:37:19;;;;;;;;;67.50;54.75;;;;;2.32;78.51;99937.81;5061045;28;45516;-76
2022/12/10 00:39:44;;;;;;;;;62.75;52.75;;;;;2.36;78.87;99942.97;5060264;28;45534;-75
2022/12/10 00:42:09;;;;;;;;;63.50;53.25;;;;;2.37;79.04;99935.16;5061113;28;45266;-76
2022/12/10 00:44:36;;;;;;;;;72.25;58.50;;;;;2.43;78.64;99932.47;5059918;28;45332;-76
2022/12/10 00:47:02;;;;;;;;;66.75;53.50;;;;;2.41;78.52;99929.03;5059418;28;45493;-71
2022/12/10 00:49:28;;;;;;;;;61.00;51.75;;;;;2.45;77.85;99935.03;5058384;28;46463;-75
2022/12/10 00:51:53;;;;;;;;;65.50;54.50;;;;;2.52;78.33;99946.19;5073685;27;45415;-72
2022/12/10 00:54:18;;;;;;;;;64.75;53.50;;;;;2.51;78.18;99947.06;5059165;28;45300;-71
2022/12/10 00:56:44;;;;;;;;;67.75;55.50;;;;;2.53;78.10;99951.31;5059278;28;45189;-72
2022/12/10 00:59:09;;;;;;;;;59.25;49.25;;;;;2.28;77.52;99909.38;5058749;28;45150;-73
2022/12/10 01:01:41;;;;;;;;;60.00;50.00;;;;;2.46;78.31;99950.59;5059526;28;45375;-73
2022/12/10 01:04:13;;;;;;;;;57.75;49.75;;;;;2.43;78.75;99947.19;5058892;28;45486;-75
2022/12/10 01:06:50;;;;;;;;;60.00;49.00;;;;;2.47;79.23;99943.66;5059932;28;45473;-71
2022/12/10 01:09:19;;;;;;;;;56.75;48.50;;;;;2.53;77.97;99940.09;5058435;28;46754;-72
2022/12/10 01:11:46;;;;;;;;;69.00;55.25;;;;;2.58;78.32;99936.53;5059182;28;45302;-73
2022/12/10 01:14:17;;;;;;;;;62.75;51.00;;;;;2.69;77.80;99946.72;5060480;28;45315;-73
2022/12/10 01:16:43;;;;;;;;;60.75;50.50;;;;;2.67;78.77;99951.09;5062595;28;45379;-74
2022/12/10 01:19:10;;;;;;;;;64.00;53.00;;;;;2.60;78.09;99939.94;5060766;28;47651;-70
2022/12/10 01:21:35;;;;;;;;;66.25;53.00;;;;;2.73;77.84;99956.19;5060124;28;45410;-75
2022/12/10 01:24:01;;;;;;;;;65.25;53.00;;;;;2.73;78.31;99961.38;5061311;28;45411;-75
2022/12/10 01:26:30;;;;;;;;;65.00;54.00;;;;;2.74;78.32;99967.44;5058511;28;45553;-71
2022/12/10 01:28:56;;;;;;;;;64.75;52.50;;;;;2.62;77.78;99948.56;5059366;28;46493;-72
2022/12/10 01:31:28;;;;;;;;;69.75;56.50;;;;;2.70;77.88;99968.38;5059891;28;45444;-73
2022/12/10 01:33:55;;;;;;;;;67.75;55.00;;;;;2.68;77.17;99971.00;5059482;28;45470;-72
2022/12/10 01:36:41;;;;;;;;;66.25;53.00;;;;;2.65;77.77;99981.44;5059402;28;45523;-71
2022/12/10 01:39:09;;;;;;;;;59.00;50.25;;;;;2.63;78.08;99975.41;5058863;28;46221;-75
2022/12/10 01:41:38;;;;;;;;;61.25;51.50;;;;;2.62;77.93;99978.88;5058247;28;45236;-71
2022/12/10 01:44:23;;;;;;;;;62.00;52.00;;;;;2.61;77.80;99983.22;5057729;28;45340;-73
2022/12/10 01:46:54;;;;;;;;;65.25;53.25;;;;;2.58;78.20;99980.66;5061436;28;45350;-76
2022/12/10 01:49:22;;;;;;;;;61.75;52.25;;;;;2.57;77.20;99991.09;5060786;28;45383;-72
2022/12/10 01:51:52;;;;;;;;;67.50;50.25;;;;;2.44;77.83;99982.63;5059982;28;45390;-71
2022/12/10 01:54:24;;;;;;;;;69.00;55.50;;;;;2.48;77.45;99994.69;5062478;28;45382;-74
2022/12/10 01:57:05;;;;;;;;;65.75;51.75;;;;;2.38;77.98;99990.53;5059741;28;45293;-73
2022/12/10 01:59:32;;;;;;;;;68.25;54.00;;;;;2.46;78.06;100012.91;5059402;28;46351;-74
2022/12/10 02:02:10;;;;;;;;;63.00;53.00;;;;;2.48;77.65;100005.06;5058103;28;45493;-74
2022/12/10 02:05:06;;;;;;;;;67.00;53.75;;;;;2.43;77.76;99992.19;5059019;28;45482;-76
2022/12/10 02:07:37;;;;;;;;;65.00;53.00;;;;;2.50;78.19;100002.47;5058410;28;45441;-72
2022/12/10 02:10:18;;;;;;;;;65.25;54.25;;;;;2.45;78.08;100002.53;5057371;28;45381;-70
2022/12/10 02:13:11;;;;;;;;;61.75;51.50;;;;;2.40;78.06;100005.22;5057765;28;45323;-71
2022/12/10 02:16:03;;;;;;;;;65.75;53.00;;;;;2.33;78.47;100007.03;5056792;28;45253;-70
2022/12/10 02:18:48;;;;;;;;;64.50;53.75;;;;;2.33;78.17;100011.38;5055465;28;45434;-70
2022/12/10 02:21:21;;;;;;;;;64.75;53.50;;;;;2.27;78.43;100012.31;5057281;28;46898;-75
2022/12/10 02:23:51;;;;;;;;;63.00;52.75;;;;;2.28;78.72;100018.38;5057196;28;45477;-71
2022/12/10 02:26:45;;;;;;;;;43.75;38.25;;;;;2.27;78.43;100019.25;5057136;28;45406;-74
2022/12/10 02:29:11;;;;;;;;;65.50;55.00;;;;;2.27;78.28;100022.69;5058312;28;45851;-72
2022/12/10 02:31:39;;;;;;;;;64.50;53.00;;;;;2.23;78.81;100017.59;5057623;28;45342;-75
2022/12/10 02:34:08;;;;;;;;;67.75;55.25;;;;;2.24;78.89;100024.50;5057493;28;45267;-75
2022/12/10 02:36:38;;;;;;;;;65.00;52.75;;;;;2.23;79.10;100023.63;5058033;28;45545;-76
2022/12/10 02:39:10;;;;;;;;;66.75;54.75;;;;;2.18;78.27;100021.13;5057814;28;45181;-73
2022/12/10 02:41:40;;;;;;;;;61.50;50.50;;;;;2.18;78.80;100018.50;5058134;28;47510;-71
2022/12/10 02:44:10;;;;;;;;;61.25;51.50;;;;;2.07;78.95;100022.13;5056050;28;45285;-76
2022/12/10 02:46:40;;;;;;;;;62.75;52.00;;;;;2.08;78.79;100022.09;5059839;28;45185;-77
2022/12/10 02:49:11;;;;;;;;;67.75;53.25;;;;;2.10;79.51;100030.72;5058751;28;45288;-77
2022/12/10 02:51:36;;;;;;;;;56.25;48.00;;;;;2.14;79.22;100035.00;5058940;28;46442;-75
2022/12/10 02:54:05;;;;;;;;;56.75;48.25;;;;;2.16;79.68;100027.19;5056838;28;45406;-74
2022/12/10 02:56:34;;;;;;;;;59.50;48.00;;;;;2.18;79.70;100026.31;5057542;28;45369;-78
2022/12/10 02:59:19;;;;;;;;;57.50;48.00;;;;;2.13;79.05;100020.31;5058219;28;45509;-76
2022/12/10 03:02:12;;;;;;;;;56.50;47.75;;;;;2.10;79.44;100012.56;5056025;28;45433;-77
2022/12/10 03:04:57;;;;;;;;;57.50;48.75;;;;;2.22;80.05;100021.06;5056002;28;45357;-73
2022/12/10 03:07:35;;;;;;;;;55.50;47.00;;;;;2.22;79.72;100023.66;5058105;28;45325;-74
2022/12/10 03:10:17;;;;;;;;;54.25;44.25;;;;;2.17;78.92;100018.53;5056990;28;45370;-75
2022/12/10 03:12:48;;;;;;;;;49.50;43.75;;;;;2.21;79.76;100014.16;5056555;28;46397;-74
2022/12/10 03:15:15;;;;;;;;;53.00;45.50;;;;;2.29;80.01;100023.53;5056509;28;45457;-70
2022/12/10 03:17:43;;;;;;;;;59.25;49.50;;;;;2.28;79.56;100011.44;5056899;28;45263;-75
2022/12/10 03:20:12;;;;;;;;;58.25;48.25;;;;;2.38;79.64;100021.66;5055113;28;46075;-77
2022/12/10 03:22:42;;;;;;;;;53.00;44.50;;;;;2.42;79.39;100018.16;5055970;28;45271;-77
2022/12/10 03:25:13;;;;;;;;;54.50;47.50;;;;;2.35;78.90;100012.22;5055958;28;45385;-75
2022/12/10 03:27:41;;;;;;;;;48.25;43.50;;;;;2.41;78.29;100019.03;5056005;28;45298;-75
2022/12/10 03:30:07;;;;;;;;;53.50;44.50;;;;;2.48;78.59;100025.84;5056149;28;45388;-75
2022/12/10 03:32:33;;;;;;;;;51.25;45.25;;;;;2.55;79.08;100035.25;5056979;28;46106;-76
2022/12/10 03:35:01;;;;;;;;;49.50;43.25;;;;;2.60;78.10;100035.19;5057086;28;45454;-73
2022/12/10 03:37:27;;;;;;;;;58.25;48.50;;;;;2.59;78.38;100036.06;5055183;28;45414;-72
2022/12/10 03:39:53;;;;;;;;;55.00;47.00;;;;;2.55;78.91;100035.25;5055448;28;45223;-71
2022/12/10 03:42:19;;;;;;;;;55.25;48.00;;;;;2.53;77.92;100037.00;5055107;28;46188;-73
2022/12/10 03:44:44;;;;;;;;;54.00;47.25;;;;;2.53;78.12;100036.16;5055828;28;45247;-75
2022/12/10 03:47:14;;;;;;;;;55.25;45.50;;;;;2.51;78.55;100038.78;5070303;28;45625;-73
2022/12/10 03:49:40;;;;;;;;;49.00;43.25;;;;;2.41;78.98;100027.69;5054902;28;45715;-73
2022/12/10 03:52:06;;;;;;;;;57.75;46.00;;;;;2.42;78.75;100044.97;5055374;28;46528;-73
2022/12/10 03:54:31;;;;;;;;;60.00;50.50;;;;;2.37;78.83;100031.22;5056679;28;45279;-75
2022/12/10 03:56:56;;;;;;;;;61.25;47.75;;;;;2.41;78.63;100042.38;5055759;28;45315;-75
2022/12/10 03:59:22;;;;;;;;;50.00;42.00;;;;;2.39;78.42;100039.84;5054853;28;45374;-74
2022/12/10 04:01:47;;;;;;;;;51.75;45.25;;;;;2.39;78.43;100037.25;5054464;28;45441;-69
2022/12/10 04:04:13;;;;;;;;;54.00;44.75;;;;;2.41;78.29;100039.78;5055136;28;45197;-75
2022/12/10 04:06:40;;;;;;;;;50.00;43.00;;;;;2.40;78.60;100051.94;5056221;28;45389;-72
2022/12/10 04:09:05;;;;;;;;;52.00;43.25;;;;;2.38;78.04;100045.91;5058817;28;45585;-72
2022/12/10 04:11:31;;;;;;;;;47.75;41.25;;;;;2.36;78.66;100052.00;5058304;28;46025;-70
2022/12/10 04:16:40;;;;;;;;;54.00;45.25;;;;;2.41;78.15;100047.59;5058548;28;45283;-75
2022/12/10 04:19:11;;;;;;;;;47.50;40.50;;;;;2.39;78.47;100047.63;5076253;28;45426;-70
2022/12/10 04:27:24;;;;;;;;;37.25;30.50;;;;;2.39;78.91;100049.34;5058137;28;45303;-70
2022/12/10 04:29:50;;;;;;;;;49.25;41.25;;;;;2.38;78.72;100043.31;5060795;28;45628;-76
2022/12/10 04:32:16;;;;;;;;;52.50;42.50;;;;;2.47;78.43;100052.69;5063057;28;46759;-74
2022/12/10 04:34:42;;;;;;;;;43.75;39.75;;;;;2.46;77.86;100046.66;5061368;28;45676;-74
2022/12/10 04:37:08;;;;;;;;;44.00;38.50;;;;;2.48;77.49;100051.81;5059978;28;45368;-76
2022/12/10 04:39:33;;;;;;;;;47.25;41.50;;;;;2.51;77.49;100053.50;5057646;28;45593;-77
2022/12/10 04:42:00;;;;;;;;;44.00;39.50;;;;;2.46;77.15;100050.97;5061451;28;45272;-77
2022/12/10 04:44:26;;;;;;;;;39.75;37.25;;;;;2.52;77.88;100050.03;5061943;28;45315;-75
2022/12/10 04:46:52;;;;;;;;;45.25;38.00;;;;;2.46;76.91;100044.06;5058938;28;45323;-75
2022/12/10 04:49:17;;;;;;;;;37.25;35.75;;;;;2.54;76.81;100063.84;5058368;28;45498;-77
2022/12/10 04:51:44;;;;;;;;;40.25;37.25;;;;;2.52;76.87;100068.22;5057654;28;46173;-75
2022/12/10 04:54:09;;;;;;;;;43.50;38.50;;;;;2.58;76.58;100071.53;5058041;28;45435;-75
2022/12/10 04:56:35;;;;;;;;;26.00;25.00;;;;;2.57;75.97;100064.63;5058967;28;45687;-74
2022/12/10 04:59:03;;;;;;;;;39.00;35.75;;;;;2.58;76.93;100068.09;5058014;28;45504;-75
2022/12/10 05:01:29;;;;;;;;;33.50;33.50;;;;;2.62;75.82;100069.78;5058514;28;45375;-78
2022/12/10 05:03:58;;;;;;;;;35.50;32.50;;;;;2.59;75.93;100057.69;5057799;28;45286;-76
2022/12/10 05:06:23;;;;;;;;;36.75;34.50;;;;;2.66;76.07;100066.25;5059661;28;44772;-75
2022/12/10 05:08:49;;;;;;;;;34.75;29.75;;;;;2.60;76.45;100063.75;5061161;28;45355;-74
2022/12/10 05:11:17;;;;;;;;;35.75;35.00;;;;;2.57;75.82;100058.59;5059395;28;45576;-77
2022/12/10 05:13:44;;;;;;;;;36.00;35.25;;;;;2.61;75.36;100066.31;5059517;28;45240;-74
2022/12/10 05:16:11;;;;;;;;;34.50;34.00;;;;;2.65;75.77;100069.72;5060139;28;45379;-76
2022/12/10 05:18:37;;;;;;;;;39.50;36.00;;;;;2.71;75.88;100067.03;5061249;28;45597;-76
2022/12/10 05:21:05;;;;;;;;;29.75;29.25;;;;;2.74;75.04;100066.13;5060405;28;45501;-73
2022/12/10 05:23:32;;;;;;;;;34.75;34.75;;;;;2.73;75.95;100062.66;5056729;28;45938;-74
2022/12/10 05:26:34;;;;;;;;;31.25;31.25;;;;;2.75;75.37;100073.88;5073568;28;45387;-74
2022/12/10 05:28:59;;;;;;;;;35.25;34.75;;;;;2.74;75.42;100061.78;5055890;28;44807;-75
2022/12/10 05:31:27;;;;;;;;;35.25;35.00;;;;;2.77;75.15;100076.47;5057090;28;49707;-71
2022/12/10 05:33:54;;;;;;;;;31.50;30.00;;;;;2.77;75.35;100071.28;5057266;28;45322;-76
2022/12/10 05:36:22;;;;;;;;;33.75;32.50;;;;;2.75;75.09;100073.88;5057888;28;45266;-75
2022/12/10 05:38:48;;;;;;;;;42.25;36.25;;;;;2.74;75.20;100079.97;5059473;28;45446;-73
2022/12/10 05:41:18;;;;;;;;;33.25;33.25;;;;;2.75;75.43;100080.84;5058566;28;45541;-74
2022/12/10 05:43:44;;;;;;;;;34.00;33.00;;;;;2.67;75.62;100069.72;5059167;28;45143;-76
2022/12/10 05:46:14;;;;;;;;;33.75;33.75;;;;;2.75;75.52;100086.03;5059748;28;45314;-74
2022/12/10 05:48:39;;;;;;;;;34.00;31.75;;;;;2.82;75.01;100095.44;5060666;28;45306;-71
2022/12/10 05:51:11;;;;;;;;;33.75;32.50;;;;;2.81;74.45;100095.44;5057029;28;45763;-69
2022/12/10 05:53:37;;;;;;;;;26.50;26.50;;;;;2.77;74.63;100105.88;5060491;28;45189;-75
2022/12/10 05:56:09;;;;;;;;;25.25;25.25;;;;;2.69;74.46;100097.38;5061821;28;45489;-76
2022/12/10 05:58:35;;;;;;;;;27.00;26.75;;;;;2.66;74.70;100094.81;5059764;28;45224;-73
2022/12/10 06:01:09;;;;;;;;;35.25;35.25;;;;;2.60;73.91;100095.75;5058950;28;45311;-72
2022/12/10 06:03:34;;;;;;;;;26.25;26.25;;;;;2.68;74.59;100100.00;5058882;28;45354;-72
2022/12/10 06:06:00;;;;;;;;;29.75;24.50;;;;;2.65;74.06;100095.69;5058660;28;45284;-71
2022/12/10 06:08:25;;;;;;;;;28.25;27.50;;;;;2.64;75.31;100096.56;5059230;28;45208;-72
2022/12/10 06:10:50;;;;;;;;;40.00;36.00;;;;;2.66;75.51;100120.78;5058343;28;46399;-71
2022/12/10 06:13:16;;;;;;;;;38.00;36.25;;;;;2.61;74.39;100115.66;5057652;28;45289;-70
2022/12/10 06:15:42;;;;;;;;;39.25;37.00;;;;;2.61;75.11;100117.41;5058544;28;45255;-76
2022/12/10 06:18:08;;;;;;;;;35.50;34.75;;;;;2.64;76.01;100109.56;5056745;28;45588;-74
2022/12/10 06:20:33;;;;;;;;;44.50;39.00;;;;;2.69;75.89;100115.53;5067997;28;46306;-76
2022/12/10 06:22:59;;;;;;;;;49.75;40.50;;;;;2.67;75.44;100106.06;5093149;27;45391;-78
2022/12/10 06:25:24;;;;;;;;;44.75;40.00;;;;;2.75;74.99;100120.66;5078270;27;45497;-66
2022/12/10 06:27:49;;;;;;;;;35.50;33.00;;;;;2.76;75.50;100124.13;5075814;27;45563;-71
2022/12/10 06:30:15;;;;;;;;;38.25;35.00;;;;;2.78;74.86;100132.75;5069517;27;47607;-73
2022/12/10 06:32:42;;;;;;;;;40.50;36.75;;;;;2.71;75.17;100137.16;5055783;28;45437;-71
2022/12/10 06:35:09;;;;;;;;;39.00;35.50;;;;;2.65;75.58;100132.06;5056024;28;45430;-74
2022/12/10 06:37:35;;;;;;;;;42.50;33.50;;;;;2.63;75.45;100128.63;5055817;28;45558;-71
2022/12/10 06:40:00;;;;;;;;;38.25;36.25;;;;;2.68;75.53;100137.19;5056963;28;46193;-72
2022/12/10 06:42:26;;;;;;;;;39.00;35.50;;;;;2.66;75.38;100136.38;5055709;28;45491;-74
2022/12/10 06:44:51;;;;;;;;;38.00;34.00;;;;;2.61;75.72;100146.81;5056781;28;45452;-75
2022/12/10 06:47:17;;;;;;;;;37.75;34.25;;;;;2.60;75.54;100152.03;5056236;28;45560;-73
2022/12/10 06:49:42;;;;;;;;;38.00;36.00;;;;;2.60;75.56;100159.81;5056097;28;45261;-75
2022/12/10 06:52:08;;;;;;;;;35.25;35.25;;;;;2.60;75.41;100162.41;5055774;28;45480;-72
2022/12/10 06:54:33;;;;;;;;;25.25;24.75;;;;;2.59;75.57;100153.75;5055803;28;45462;-76
2022/12/10 06:56:58;;;;;;;;;35.00;34.25;;;;;2.58;75.75;100148.59;5054640;28;45417;-74
2022/12/10 06:59:24;;;;;;;;;38.25;35.75;;;;;2.65;75.60;100159.75;5056158;28;45361;-71
2022/12/10 07:01:50;;;;;;;;;41.00;38.50;;;;;2.69;76.13;100164.88;5055112;28;45445;-74
2022/12/10 07:04:15;;;;;;;;;26.00;25.25;;;;;2.67;75.96;100153.66;5055838;28;45521;-75
2022/12/10 07:06:41;;;;;;;;;36.25;35.00;;;;;2.74;74.89;100164.84;5056507;28;45317;-75
2022/12/10 07:09:06;;;;;;;;;39.75;35.50;;;;;2.75;75.14;100167.41;5057404;28;45434;-74
2022/12/10 07:11:32;;;;;;;;;34.75;33.75;;;;;2.77;75.06;100167.38;5056624;28;45348;-77
2022/12/10 07:13:58;;;;;;;;;31.50;30.00;;;;;2.76;74.90;100174.31;5055569;28;45299;-72
2022/12/10 07:16:27;;;;;;;;;31.25;29.00;;;;;2.75;75.26;100188.19;5056052;28;45383;-74
2022/12/10 07:18:54;;;;;;;;;35.50;31.00;;;;;2.72;75.06;100185.63;5055431;28;45343;-75
2022/12/10 07:21:24;;;;;;;;;40.00;36.00;;;;;2.72;74.70;100193.41;5053123;28;45293;-75
2022/12/10 07:23:51;;;;;;;;;33.00;30.25;;;;;2.72;75.48;100187.38;5055831;28;45300;-77
2022/12/10 07:26:17;;;;;;;;;37.75;35.75;;;;;2.68;74.95;100186.53;5056448;28;45540;-76
2022/12/10 07:28:42;;;;;;;;;27.75;27.75;;;;;2.68;74.94;100188.31;5055986;28;45735;-76
2022/12/10 07:31:09;;;;;;;;;30.75;30.00;;;;;2.70;75.40;100195.19;5055346;28;45241;-71
2022/12/10 07:33:35;;;;;;;;;36.00;33.75;;;;;2.75;75.67;100198.56;5055731;28;45339;-75
2022/12/10 07:36:09;;;;;;;;;36.75;36.00;;;;;2.81;75.71;100205.44;5056084;28;45568;-75
2022/12/10 07:38:34;;;;;;;;;37.50;36.00;;;;;2.83;74.69;100195.00;5055162;28;45390;-75
2022/12/10 07:41:05;;;;;;;;;33.50;32.25;;;;;2.86;75.05;100190.63;5053159;28;45472;-77
2022/12/10 07:43:30;;;;;;;;;30.00;25.75;;;;;2.88;74.38;100199.25;5055719;28;45339;-74
2022/12/10 07:45:55;;;;;;;;;41.25;35.25;;;;;2.88;74.47;100199.25;5055711;28;45161;-75
2022/12/10 07:48:21;;;;;;;;;38.25;36.50;;;;;2.94;75.42;100200.88;5054068;28;51427;-73
2022/12/10 07:50:47;;;;;;;;;41.75;38.75;;;;;2.99;74.76;100203.44;5053941;28;45496;-72
2022/12/10 07:53:12;;;;;;;;;38.75;35.25;;;;;2.98;74.69;100199.97;5053825;28;45270;-72
2022/12/10 07:55:37;;;;;;;;;34.00;34.00;;;;;3.03;74.32;100207.72;5055075;28;45544;-74
2022/12/10 07:58:03;;;;;;;;;33.50;31.50;;;;;3.04;74.32;100209.41;5055300;28;50853;-74
2022/12/10 08:00:28;;;;;;;;;30.75;28.50;;;;;2.88;74.80;100178.47;5055651;28;45806;-74
2022/12/10 08:02:54;;;;;;;;;36.25;35.25;;;;;3.03;74.12;100198.16;5055334;28;45767;-71
2022/12/10 08:05:19;;;;;;;;;34.25;33.25;;;;;3.13;74.36;100211.00;5054932;28;45527;-73
2022/12/10 08:07:45;;;;;;;;;35.00;33.00;;;;;3.14;74.45;100215.31;5053243;28;46952;-74
2022/12/10 08:10:10;;;;;;;;;35.75;33.75;;;;;3.21;74.19;100214.38;5054622;28;45406;-71
2022/12/10 08:12:36;;;;;;;;;34.25;33.25;;;;;3.26;74.34;100219.47;5055906;28;45346;-75
2022/12/10 08:15:02;;;;;;;;;34.00;31.25;;;;;3.30;74.17;100231.56;5055946;28;45373;-73
2022/12/10 08:17:28;;;;;;;;;51.00;43.25;;;;;3.34;73.83;100233.22;5053347;28;45532;-74
2022/12/10 08:19:54;;;;;;;;;42.00;38.50;;;;;3.36;73.64;100227.13;5054753;28;45317;-76
2022/12/10 08:22:20;;;;;;;;;36.50;35.00;;;;;3.46;73.57;100239.97;5054535;28;45409;-72
2022/12/10 08:24:45;;;;;;;;;37.25;35.50;;;;;3.50;74.30;100242.47;5055497;28;45557;-72
2022/12/10 08:27:11;;;;;;;;;33.00;32.25;;;;;3.47;73.26;100237.34;5055029;28;46187;-74
2022/12/10 08:29:36;;;;;;;;;32.75;30.25;;;;;3.35;73.11;100235.81;5055073;28;45423;-74
2022/12/10 08:32:01;;;;;;;;;33.25;33.25;;;;;3.37;73.57;100251.38;5055470;28;45269;-76
2022/12/10 08:34:27;;;;;;;;;33.25;30.50;;;;;3.38;72.98;100254.84;5058105;28;45229;-75
2022/12/10 08:36:52;;;;;;;;;40.75;35.50;;;;;3.27;73.55;100244.59;5053442;28;47492;-75
2022/12/10 08:39:17;;;;;;;;;36.25;34.00;;;;;3.35;73.11;100258.34;5055389;28;45374;-74
2022/12/10 08:41:44;;;;;;;;;33.50;33.50;;;;;3.38;73.84;100262.66;5055304;28;45509;-76
2022/12/10 08:44:11;;;;;;;;;34.75;32.00;;;;;3.48;73.65;100265.06;5055025;28;45424;-72
2022/12/10 08:46:36;;;;;;;;;35.25;34.25;;;;;3.46;73.58;100252.97;5054996;28;45496;-75
2022/12/10 08:49:02;;;;;;;;;40.25;35.75;;;;;3.51;73.86;100252.00;5055329;28;45375;-74
2022/12/10 08:51:28;;;;;;;;;43.75;38.00;;;;;3.67;73.04;100272.56;5055514;28;45431;-74
2022/12/10 08:53:55;;;;;;;;;32.50;32.50;;;;;3.70;73.39;100261.25;5055019;28;45521;-75
2022/12/10 08:56:21;;;;;;;;;37.00;34.75;;;;;3.70;73.21;100267.31;5057700;28;45381;-76
2022/12/10 08:58:46;;;;;;;;;38.50;34.50;;;;;3.61;73.07;100257.94;5059528;28;45313;-75
2022/12/10 09:01:14;;;;;;;;;38.00;35.00;;;;;3.58;73.25;100264.91;5059130;28;45375;-79
2022/12/10 09:03:39;;;;;;;;;33.50;33.00;;;;;3.61;72.46;100270.06;5057425;28;45422;-76
2022/12/10 09:06:07;;;;;;;;;34.25;34.00;;;;;3.58;72.42;100278.78;5057289;28;45933;-77
2022/12/10 09:08:34;;;;;;;;;27.50;27.50;;;;;3.54;72.46;100278.84;5057320;28;45493;-75
2022/12/10 09:11:07;;;;;;;;;35.25;30.50;;;;;3.48;73.19;100279.81;5056873;28;45336;-76
2022/12/10 09:13:32;;;;;;;;;31.00;28.50;;;;;3.49;72.78;100286.72;5057737;28;45488;-74
2022/12/10 09:15:58;;;;;;;;;28.25;27.75;;;;;3.47;73.00;100296.31;5057952;28;45288;-76
2022/12/10 09:18:23;;;;;;;;;32.75;30.50;;;;;3.43;72.87;100295.47;5057277;28;45360;-74
2022/12/10 09:20:49;;;;;;;;;30.75;30.75;;;;;3.43;73.08;100295.47;5056568;28;45338;-76
2022/12/10 09:23:14;;;;;;;;;28.50;27.25;;;;;3.36;72.70;100296.44;5058118;28;45482;-76
2022/12/10 09:25:39;;;;;;;;;27.25;25.50;;;;;3.33;72.32;100299.97;5058332;28;45411;-71
2022/12/10 09:28:05;;;;;;;;;27.25;26.75;;;;;3.28;72.42;100304.38;5060854;28;45296;-74
2022/12/10 09:30:30;;;;;;;;;27.75;27.25;;;;;3.20;72.08;100304.47;5058686;28;45337;-76
2022/12/10 09:32:55;;;;;;;;;28.50;28.50;;;;;2.99;72.94;100264.03;5056593;28;45597;-75
2022/12/10 09:35:21;;;;;;;;;30.00;29.50;;;;;3.09;72.46;100293.38;5056302;28;45280;-73
2022/12/10 09:37:46;;;;;;;;;34.00;30.25;;;;;3.11;72.68;100291.63;5057721;28;45362;-73
2022/12/10 09:40:29;;;;;;;;;32.25;27.50;;;;;3.22;72.62;100307.06;5057104;28;45239;-75
2022/12/10 09:43:04;;;;;;;;;21.00;21.00;;;;;3.22;73.21;100299.28;5057229;28;45557;-72
2022/12/10 09:45:47;;;;;;;;;26.50;26.50;;;;;3.26;72.60;100303.53;5056696;28;47319;-74
2022/12/10 09:48:28;;;;;;;;;27.00;25.75;;;;;3.28;72.10;100313.91;5057538;28;45383;-73
2022/12/10 09:50:57;;;;;;;;;24.00;22.75;;;;;3.26;71.99;100307.88;5056659;28;45474;-70
2022/12/10 09:53:26;;;;;;;;;28.75;26.00;;;;;3.27;72.55;100325.19;5055678;28;45553;-73
2022/12/10 09:55:52;;;;;;;;;29.25;28.25;;;;;3.29;72.35;100318.22;5056805;28;45474;-76
2022/12/10 09:58:23;;;;;;;;;24.25;23.50;;;;;3.24;71.71;100305.31;5056358;28;45358;-73
2022/12/10 10:01:03;;;;;;;;;31.00;31.00;;;;;3.33;71.73;100319.91;5057584;28;45327;-73
2022/12/10 10:03:36;;;;;;;;;33.75;32.25;;;;;3.36;71.79;100320.72;5058202;28;45502;-73
2022/12/10 10:06:04;;;;;;;;;36.25;33.75;;;;;3.43;72.03;100321.47;5056601;28;45193;-75
2022/12/10 10:08:43;;;;;;;;;39.75;34.75;;;;;3.53;71.99;100326.53;5056732;28;45396;-76
2022/12/10 10:11:18;;;;;;;;;32.50;32.50;;;;;3.59;71.45;100316.91;5056796;28;45289;-76
2022/12/10 10:13:51;;;;;;;;;28.75;28.75;;;;;3.68;71.61;100313.28;5057719;28;45438;-74
2022/12/10 10:16:23;;;;;;;;;30.25;30.25;;;;;3.80;71.43;100309.66;5056976;28;45431;-76
2022/12/10 10:19:03;;;;;;;;;28.75;27.00;;;;;3.96;71.28;100310.25;5055724;28;45442;-76
2022/12/10 10:21:40;;;;;;;;;33.25;32.50;;;;;4.05;70.25;100307.50;5056321;28;45435;-75
2022/12/10 10:24:09;;;;;;;;;36.75;35.00;;;;;4.07;70.71;100308.31;5056621;28;45416;-72
2022/12/10 10:26:35;;;;;;;;;33.00;31.50;;;;;4.07;69.96;100304.84;5057421;28;46444;-78
2022/12/10 10:29:05;;;;;;;;;43.00;36.75;;;;;4.06;70.29;100305.72;5055059;28;45359;-76
2022/12/10 10:31:33;;;;;;;;;42.75;36.50;;;;;4.13;70.19;100303.91;5075289;27;45354;-78
2022/12/10 10:34:01;;;;;;;;;34.75;33.25;;;;;4.16;70.07;100298.63;5077300;27;45326;-74
2022/12/10 10:36:30;;;;;;;;;34.50;33.75;;;;;4.11;70.16;100290.06;5077548;27;46397;-74
2022/12/10 10:38:56;;;;;;;;;31.00;29.00;;;;;4.07;69.67;100291.84;5087085;27;45335;-73
2022/12/10 10:41:24;;;;;;;;;32.25;32.25;;;;;4.03;70.02;100300.59;5076028;27;45268;-75
2022/12/10 10:43:59;;;;;;;;;50.75;43.50;;;;;4.00;70.14;100304.13;5071528;27;45528;-74
2022/12/10 10:46:25;;;;;;;;;40.00;37.25;;;;;4.00;69.82;100296.31;5069230;27;47138;-76
2022/12/10 10:48:52;;;;;;;;;37.50;35.00;;;;;3.91;69.92;100301.66;5076711;28;45422;-75
2022/12/10 10:51:23;;;;;;;;;40.25;35.75;;;;;3.78;70.44;100309.69;5076726;27;45351;-72
2022/12/10 10:53:54;;;;;;;;;39.75;37.75;;;;;3.50;70.23;100273.69;5074933;27;45485;-73
2022/12/10 10:56:26;;;;;;;;;41.75;38.25;;;;;3.67;71.18;100305.53;5076059;28;45448;-77
2022/12/10 10:59:01;;;;;;;;;40.25;36.25;;;;;3.67;70.48;100315.94;5075424;27;45477;-77
2022/12/10 11:01:52;;;;;;;;;33.75;32.75;;;;;3.57;70.63;100313.47;5081838;27;45726;-78
2022/12/10 11:04:30;;;;;;;;;34.25;31.50;;;;;3.56;70.67;100318.69;5079873;27;45994;-75
2022/12/10 11:07:01;;;;;;;;;38.50;37.00;;;;;3.54;71.54;100313.53;5078317;27;45438;-68
2022/12/10 11:09:33;;;;;;;;;46.00;41.00;;;;;3.59;71.30;100323.84;5077829;27;45219;-71
2022/12/10 11:12:01;;;;;;;;;43.25;40.00;;;;;3.60;71.32;100322.97;5078116;27;45227;-69
2022/12/10 11:14:40;;;;;;;;;43.25;38.00;;;;;3.62;70.97;100316.00;5078495;27;45421;-69
2022/12/10 11:17:09;;;;;;;;;42.00;38.00;;;;;3.66;70.97;100328.06;5075020;27;47314;-72
2022/12/10 11:19:34;;;;;;;;;35.75;34.50;;;;;3.75;70.96;100320.16;5077347;28;45352;-66
2022/12/10 11:22:20;;;;;;;;;44.50;38.50;;;;;3.83;70.69;100320.00;5070028;27;45560;-68
2022/12/10 11:24:47;;;;;;;;;34.25;33.75;;;;;3.91;70.98;100312.09;5069650;28;45386;-70
2022/12/10 11:27:38;;;;;;;;;51.50;44.25;;;;;4.00;70.62;100308.44;5070883;28;47392;-68
2022/12/10 11:30:12;;;;;;;;;48.00;41.00;;;;;4.09;70.87;100305.69;5059186;27;45481;-74
2022/12/10 11:32:56;;;;;;;;;42.50;37.75;;;;;4.17;70.21;100297.75;5064660;28;46421;-69
2022/12/10 11:35:54;;;;;;;;;38.25;35.25;;;;;4.16;70.07;100301.25;5066465;27;45504;-70